KDAL/DAL METAR and TAF weather

Enter ICAO airport designator
Station Type Date Time Source
KDAL METAR 2022/07/01 00:53 UTC NOAA

KDAL 010053Z 14009G16KT 10SM FEW085 FEW250 35/16 A2990 RMK AO2 SLP116 CB DSNT E-SE MOV W T03500161


Station Type Date Time Source
KDAL Decoded METAR 2022/07/01 00:53 UTC NOAA

DALLAS LOVE FIELD, TX, United States (KDAL) 32-51N 096-51W 158M
Jun 30, 2022 - 08:53 PM EDT / 2022.07.01 0053 UTC
Wind: from the SE (140 degrees) at 10 MPH (9 KT) gusting to 18 MPH (16 KT):0
Visibility: 10 mile(s):0
Sky conditions: mostly clear
Weather: Cumulonimbus clouds observed
Temperature: 95.0 F (35.0 C)
Heat index: 95.2 F (35.1 C):1
Dew Point: 61.0 F (16.1 C)
Relative Humidity: 32%
Pressure (altimeter): 29.9 in. Hg (1012 hPa)
ob: KDAL 010053Z 14009G16KT 10SM FEW085 FEW250 35/16 A2990 RMK AO2 SLP116 CB DSNT E-SE MOV W T03500161
cycle: 1

Station Type Date Time Source
KDAL TAF 2022/06/30 21:57 UTC NOAA

TAF
AMD KDAL 302053Z 3021/0118 15010KT P6SM FEW080

Example: see airport list